createdAt,value
2022-12-19T00:01:35.990Z,99491.00
2022-12-19T00:04:08.138Z,99474.41
2022-12-19T00:06:36.026Z,99471.81
2022-12-19T00:09:02.726Z,99469.78
2022-12-19T00:11:29.646Z,99480.22
2022-12-19T00:13:56.729Z,99462.91
2022-12-19T00:16:26.051Z,99457.44
2022-12-19T00:18:55.097Z,99466.06
2022-12-19T00:21:24.497Z,99467.06
2022-12-19T00:23:51.799Z,99461.78
2022-12-19T00:26:21.663Z,99452.63
2022-12-19T00:28:50.640Z,99450.34
2022-12-19T00:31:18.775Z,99451.03
2022-12-19T00:33:45.599Z,99443.91
2022-12-19T00:36:15.184Z,99442.88
2022-12-19T00:38:45.004Z,99439.75
2022-12-19T00:41:13.948Z,99454.81
2022-12-19T00:43:41.321Z,99445.91
2022-12-19T00:46:13.703Z,99434.47
2022-12-19T00:48:41.049Z,99437.28
2022-12-19T00:51:11.038Z,99425.56
2022-12-19T00:53:37.584Z,99444.09
2022-12-19T00:56:06.835Z,99432.22
2022-12-19T00:58:35.618Z,99432.22
2022-12-19T01:01:10.626Z,99436.38
2022-12-19T01:03:37.532Z,99439.31
2022-12-19T01:06:04.731Z,99441.13
2022-12-19T01:08:31.926Z,99437.81
2022-12-19T01:10:58.686Z,99434.16
2022-12-19T01:13:27.738Z,99433.25
2022-12-19T01:15:54.338Z,99426.78
2022-12-19T01:18:20.812Z,99428.59
2022-12-19T01:20:47.532Z,99432.50
2022-12-19T01:23:16.372Z,99432.06
2022-12-19T01:25:47.944Z,99430.56
2022-12-19T01:28:15.647Z,99443.41
2022-12-19T01:30:42.878Z,99434.53
2022-12-19T01:33:14.559Z,99447.16
2022-12-19T01:35:42.330Z,99438.19
2022-12-19T01:38:14.475Z,99442.78
2022-12-19T01:40:40.976Z,99452.53
2022-12-19T01:43:13.779Z,99456.69
2022-12-19T01:45:45.704Z,99454.13
2022-12-19T01:48:38.686Z,99444.47
2022-12-19T01:51:14.057Z,99468.31
2022-12-19T01:53:49.843Z,99451.16
2022-12-19T01:56:19.443Z,99459.81
2022-12-19T01:58:46.550Z,99454.78
2022-12-19T02:01:14.511Z,99467.38
2022-12-19T02:03:41.633Z,99478.63
2022-12-19T02:06:08.767Z,99472.41
2022-12-19T02:08:36.588Z,99470.56
2022-12-19T02:11:03.069Z,99472.59
2022-12-19T02:13:29.862Z,99476.06
2022-12-19T02:16:15.215Z,99483.38
2022-12-19T02:18:51.834Z,99480.03
2022-12-19T02:21:25.281Z,99474.06
2022-12-19T02:24:16.358Z,99469.47
2022-12-19T02:26:42.791Z,99476.78
2022-12-19T02:29:38.654Z,99478.44
2022-12-19T02:32:07.060Z,99477.97
2022-12-19T02:34:44.255Z,99490.38
2022-12-19T02:37:17.740Z,99491.75
2022-12-19T02:39:50.841Z,99492.59
2022-12-19T02:42:26.646Z,99490.56
2022-12-19T02:44:57.302Z,99478.72
2022-12-19T02:47:24.625Z,99481.50
2022-12-19T02:49:51.134Z,99490.25
2022-12-19T02:52:20.583Z,99483.13
2022-12-19T02:54:50.208Z,99483.50
2022-12-19T02:57:23.457Z,99484.19
2022-12-19T03:00:05.902Z,99477.75
2022-12-19T03:03:01.507Z,99488.84
2022-12-19T03:05:35.423Z,99472.47
2022-12-19T03:08:45.088Z,99473.59
2022-12-19T03:11:14.781Z,99464.66
2022-12-19T03:14:07.375Z,99455.38
2022-12-19T03:16:35.806Z,99450.28
2022-12-19T03:19:02.973Z,99448.13
2022-12-19T03:21:36.592Z,99453.63
2022-12-19T03:24:05.170Z,99453.94
2022-12-19T03:26:38.310Z,99451.59
2022-12-19T03:29:23.142Z,99441.19
2022-12-19T03:31:50.056Z,99431.56
2022-12-19T03:34:31.471Z,99437.38
2022-12-19T03:37:03.363Z,99436.91
2022-12-19T03:39:32.342Z,99439.88
2022-12-19T03:42:19.676Z,99448.19
2022-12-19T03:44:49.884Z,99433.91
2022-12-19T03:47:47.060Z,99437.72
2022-12-19T03:50:14.136Z,99436.59
2022-12-19T03:52:52.572Z,99428.19
2022-12-19T03:55:32.106Z,99438.25
2022-12-19T03:58:06.836Z,99437.28
2022-12-19T04:00:37.882Z,99436.78
2022-12-19T04:03:05.758Z,99422.38
2022-12-19T04:05:33.846Z,99430.00
2022-12-19T04:08:05.662Z,99426.84
2022-12-19T04:10:39.207Z,99417.59
2022-12-19T04:13:11.972Z,99410.81
2022-12-19T04:15:47.510Z,99423.06
2022-12-19T04:18:15.943Z,99421.41
2022-12-19T04:20:49.375Z,99428.03
2022-12-19T04:23:27.192Z,99421.88
2022-12-19T04:26:00.199Z,99420.38
2022-12-19T04:28:40.695Z,99430.97
2022-12-19T04:31:07.979Z,99419.75
2022-12-19T04:33:34.476Z,99411.16
2022-12-19T04:36:00.984Z,99422.38
2022-12-19T04:38:27.783Z,99427.03
2022-12-19T04:40:54.295Z,99421.75
2022-12-19T04:43:20.809Z,99420.56
2022-12-19T04:45:47.270Z,99412.28
2022-12-19T04:48:15.460Z,99415.25
2022-12-19T04:50:41.938Z,99419.09
2022-12-19T04:53:08.467Z,99428.69
2022-12-19T04:55:35.106Z,99423.75
2022-12-19T04:58:01.671Z,99420.59
2022-12-19T05:00:28.157Z,99422.41
2022-12-19T05:02:54.750Z,99411.50
2022-12-19T05:05:21.369Z,99407.84
2022-12-19T05:07:47.807Z,99419.59
2022-12-19T05:10:14.485Z,99424.38
2022-12-19T05:12:40.982Z,99435.38
2022-12-19T05:15:08.033Z,99429.03
2022-12-19T05:17:34.785Z,99436.03
2022-12-19T05:20:01.310Z,99432.69
2022-12-19T05:22:27.996Z,99432.00
2022-12-19T05:24:54.467Z,99432.03
2022-12-19T05:27:21.037Z,99431.03
2022-12-19T05:29:47.530Z,99415.66
2022-12-19T05:32:13.967Z,99413.69
2022-12-19T05:34:40.458Z,99429.03
2022-12-19T05:37:06.905Z,99424.09
2022-12-19T05:39:33.428Z,99437.16
2022-12-19T05:41:59.900Z,99443.31
2022-12-19T05:44:26.683Z,99436.69
2022-12-19T05:46:53.284Z,99434.41
2022-12-19T05:49:19.745Z,99436.19
2022-12-19T05:51:46.728Z,99427.94
2022-12-19T05:54:13.210Z,99410.53
2022-12-19T05:56:39.675Z,99422.13
2022-12-19T05:59:06.461Z,99415.50
2022-12-19T06:01:33.050Z,99419.81
2022-12-19T06:03:59.669Z,99415.34
2022-12-19T06:06:26.979Z,99414.53
2022-12-19T06:08:58.719Z,99415.34
2022-12-19T06:11:26.042Z,99407.94
2022-12-19T06:13:53.009Z,99403.28
2022-12-19T06:16:21.041Z,99409.91
2022-12-19T06:18:47.654Z,99404.25
2022-12-19T06:21:22.040Z,99406.75
2022-12-19T06:23:49.089Z,99392.03
2022-12-19T06:26:19.974Z,99401.63
2022-12-19T06:28:48.327Z,99396.66
2022-12-19T06:31:15.743Z,99407.25
2022-12-19T06:33:42.415Z,99403.75
2022-12-19T06:36:27.043Z,99411.19
2022-12-19T06:38:55.284Z,99404.09
2022-12-19T06:41:40.333Z,99413.56
2022-12-19T06:44:12.171Z,99406.94
2022-12-19T06:46:40.110Z,99412.88
2022-12-19T06:49:07.389Z,99416.19
2022-12-19T06:51:33.984Z,99405.59
2022-12-19T06:54:00.632Z,99409.91
2022-12-19T06:56:27.145Z,99407.72
2022-12-19T06:58:53.662Z,99406.59
2022-12-19T07:01:22.025Z,99411.41
2022-12-19T07:03:49.291Z,99407.59
2022-12-19T07:06:15.827Z,99401.63
2022-12-19T07:08:42.610Z,99405.28
2022-12-19T07:11:09.077Z,99410.91
2022-12-19T07:13:35.542Z,99400.16
2022-12-19T07:16:04.361Z,99399.66
2022-12-19T07:18:34.447Z,99405.44
2022-12-19T07:21:01.671Z,99400.31
2022-12-19T07:23:29.340Z,99408.56
2022-12-19T07:25:55.895Z,99409.72
2022-12-19T07:28:22.503Z,99410.91
2022-12-19T07:30:48.972Z,99408.09
2022-12-19T07:33:21.033Z,99399.47
2022-12-19T07:35:48.277Z,99409.91
2022-12-19T07:38:14.762Z,99421.03
2022-12-19T07:40:41.199Z,99431.47
2022-12-19T07:43:07.793Z,99423.84
2022-12-19T07:45:37.244Z,99429.47
2022-12-19T07:48:05.566Z,99431.47
2022-12-19T07:50:32.797Z,99431.81
2022-12-19T07:52:59.941Z,99441.06
2022-12-19T07:55:26.957Z,99442.91
2022-12-19T07:57:53.922Z,99449.72
2022-12-19T08:00:21.567Z,99453.34
2022-12-19T08:02:48.375Z,99447.56
2022-12-19T08:05:15.084Z,99447.56
2022-12-19T08:07:41.588Z,99452.19
2022-12-19T08:10:08.970Z,99452.38
2022-12-19T08:12:35.461Z,99442.25
2022-12-19T08:15:01.892Z,99436.78
2022-12-19T08:17:28.472Z,99438.94
2022-12-19T08:19:54.942Z,99435.44
2022-12-19T08:22:21.417Z,99438.75
2022-12-19T08:24:47.893Z,99436.94
2022-12-19T08:27:16.439Z,99439.06
2022-12-19T08:29:42.987Z,99440.41
2022-12-19T08:32:09.538Z,99446.19
2022-12-19T08:34:35.966Z,99449.31
2022-12-19T08:37:02.453Z,99442.66
2022-12-19T08:39:28.955Z,99431.66
2022-12-19T08:41:55.437Z,99431.31
2022-12-19T08:44:22.043Z,99436.25
2022-12-19T08:46:50.469Z,99447.22
2022-12-19T08:49:18.642Z,99436.94
2022-12-19T08:51:46.024Z,99439.03
2022-12-19T08:54:12.566Z,99442.28
2022-12-19T08:56:41.388Z,99446.59
2022-12-19T08:59:13.314Z,99444.97
2022-12-19T09:01:41.564Z,99441.69
2022-12-19T09:04:51.709Z,99435.38
2022-12-19T09:06:54.620Z,99435.31
2022-12-19T09:09:21.176Z,99427.31
2022-12-19T09:11:48.447Z,99435.91
2022-12-19T09:14:14.985Z,99438.97
2022-12-19T09:16:47.066Z,99432.25
2022-12-19T09:19:15.626Z,99434.72
2022-12-19T09:21:43.398Z,99444.38
2022-12-19T09:24:10.736Z,99451.88
2022-12-19T09:26:41.999Z,99451.13
2022-12-19T09:29:19.880Z,99453.50
2022-12-19T09:31:53.901Z,99462.28
2022-12-19T09:34:24.034Z,99451.75
2022-12-19T09:36:52.167Z,99451.69
2022-12-19T09:39:18.741Z,99462.66
2022-12-19T09:41:45.149Z,99450.09
2022-12-19T09:44:17.582Z,99458.22
2022-12-19T09:46:52.386Z,99451.59
2022-12-19T09:49:25.018Z,99438.44
2022-12-19T09:52:10.981Z,99441.13
2022-12-19T09:54:46.077Z,99439.25
2022-12-19T09:57:23.102Z,99429.66
2022-12-19T10:00:20.519Z,99415.78
2022-12-19T10:02:54.375Z,99418.09
2022-12-19T10:06:58.939Z,99410.06
2022-12-19T10:08:43.074Z,99411.16
2022-12-19T10:12:44.974Z,99407.16
2022-12-19T10:14:36.632Z,99411.50
2022-12-19T10:17:30.111Z,99401.72
2022-12-19T10:20:18.133Z,99391.53
2022-12-19T10:22:47.794Z,99386.13
2022-12-19T10:25:50.484Z,99389.50
2022-12-19T10:28:36.590Z,99376.81
2022-12-19T10:31:22.240Z,99382.13
2022-12-19T10:33:57.063Z,99373.97
2022-12-19T10:36:48.750Z,99369.50
2022-12-19T10:39:35.888Z,99363.22
2022-12-19T10:42:15.835Z,99339.09
2022-12-19T10:44:45.436Z,99343.91
2022-12-19T10:47:17.176Z,99342.25
2022-12-19T10:49:43.676Z,99342.38
2022-12-19T10:52:12.611Z,99342.44
2022-12-19T10:54:41.053Z,99333.66
2022-12-19T10:57:27.075Z,99344.75
2022-12-19T11:00:06.573Z,99323.75
2022-12-19T11:02:39.103Z,99326.94
2022-12-19T11:05:21.152Z,99319.88
2022-12-19T11:08:06.835Z,99332.00
2022-12-19T11:14:36.530Z,99321.88
2022-12-19T11:17:33.615Z,99327.09
2022-12-19T11:23:11.980Z,99314.53
2022-12-19T11:29:17.074Z,99308.00
2022-12-19T11:29:33.802Z,99301.50
2022-12-19T11:30:36.478Z,99302.19
2022-12-19T11:30:40.968Z,99314.22
2022-12-19T11:31:29.642Z,99297.75
2022-12-19T11:33:47.394Z,99280.00
2022-12-19T11:36:32.803Z,99283.78
2022-12-19T11:38:59.906Z,99286.22
2022-12-19T11:41:57.321Z,99271.50
2022-12-19T11:44:37.248Z,99266.81
2022-12-19T11:47:11.465Z,99268.91
2022-12-19T11:49:47.384Z,99263.97
2022-12-19T11:55:54.152Z,99255.53
2022-12-19T11:58:24.079Z,99254.75
2022-12-19T12:00:58.486Z,99266.31
2022-12-19T12:03:53.919Z,99259.75
2022-12-19T12:06:46.100Z,99259.13
2022-12-19T12:13:15.039Z,99253.75
2022-12-19T12:21:44.787Z,99245.31
2022-12-19T12:27:17.391Z,99249.81
2022-12-19T12:31:06.026Z,99242.00
2022-12-19T12:31:18.281Z,99239.97
2022-12-19T12:31:46.437Z,99242.59
2022-12-19T12:31:51.386Z,99251.69
2022-12-19T12:32:05.786Z,99238.84
2022-12-19T12:35:33.020Z,99227.03
2022-12-19T12:40:42.153Z,99220.41
2022-12-19T12:43:17.169Z,99210.59
2022-12-19T12:45:47.695Z,99227.63
2022-12-19T12:48:32.782Z,99215.94
2022-12-19T12:51:00.658Z,99223.22
2022-12-19T12:53:34.525Z,99220.03
2022-12-19T12:56:03.220Z,99227.88
2022-12-19T12:58:45.408Z,99236.09
2022-12-19T13:01:20.324Z,99232.13
2022-12-19T13:03:54.828Z,99225.75
2022-12-19T13:06:24.790Z,99226.19
2022-12-19T13:09:02.013Z,99238.31
2022-12-19T13:11:46.861Z,99238.75
2022-12-19T13:14:35.283Z,99231.53
2022-12-19T13:17:02.777Z,99236.25
2022-12-19T13:19:31.477Z,99239.16
2022-12-19T13:22:03.664Z,99245.72
2022-12-19T13:24:56.757Z,99242.66
2022-12-19T13:27:24.726Z,99250.47
2022-12-19T13:30:00.428Z,99250.28
2022-12-19T13:32:33.711Z,99255.22
2022-12-19T13:35:23.648Z,99249.25
2022-12-19T13:39:55.540Z,99256.44
2022-12-19T13:40:59.187Z,99259.31
2022-12-19T13:43:49.647Z,99257.47
2022-12-19T13:46:38.035Z,99267.97
2022-12-19T13:49:19.574Z,99264.25
2022-12-19T13:51:49.300Z,99265.50
2022-12-19T13:54:32.918Z,99272.06
2022-12-19T13:57:03.037Z,99270.00
2022-12-19T13:59:38.633Z,99262.19
2022-12-19T14:02:17.725Z,99264.19
2022-12-19T14:04:44.903Z,99255.72
2022-12-19T14:07:38.369Z,99271.72
2022-12-19T14:11:40.923Z,99272.09
2022-12-19T14:13:41.589Z,99272.00
2022-12-19T14:16:34.829Z,99253.72
2022-12-19T14:19:19.709Z,99253.03
2022-12-19T14:22:10.855Z,99254.25
2022-12-19T14:24:32.702Z,99246.66
2022-12-19T14:28:18.428Z,99258.44
2022-12-19T14:30:28.326Z,99253.94
2022-12-19T14:33:39.577Z,99259.84
2022-12-19T14:36:10.777Z,99264.31
2022-12-19T14:39:27.800Z,99265.13
2022-12-19T14:41:40.857Z,99250.97
2022-12-19T14:51:42.576Z,99255.03
2022-12-19T14:51:42.793Z,99250.00
2022-12-19T14:54:02.261Z,99257.38
2022-12-19T14:54:48.108Z,99251.81
2022-12-19T14:56:14.095Z,99249.00
2022-12-19T14:58:54.064Z,99255.22
2022-12-19T15:01:26.888Z,99251.78
2022-12-19T15:04:53.198Z,99247.22
2022-12-19T15:07:09.332Z,99242.75
2022-12-19T15:11:04.445Z,99247.31
2022-12-19T15:14:47.270Z,99249.50
2022-12-19T15:15:51.379Z,99244.06
2022-12-19T15:18:23.951Z,99250.81
2022-12-19T15:20:52.307Z,99249.41
2022-12-19T15:23:22.385Z,99241.59
2022-12-19T15:26:07.041Z,99244.84
2022-12-19T15:28:47.966Z,99245.59
2022-12-19T15:31:24.590Z,99252.06
2022-12-19T15:34:32.405Z,99239.88
2022-12-19T15:36:37.648Z,99234.94
2022-12-19T15:39:04.427Z,99240.66
2022-12-19T15:41:31.355Z,99243.31
2022-12-19T15:44:05.863Z,99248.38
2022-12-19T15:46:33.470Z,99244.44
2022-12-19T15:49:00.147Z,99236.81
2022-12-19T15:51:26.738Z,99240.03
2022-12-19T15:53:53.536Z,99241.41
2022-12-19T15:56:28.603Z,99234.94
2022-12-19T15:58:57.219Z,99235.59
2022-12-19T16:01:23.919Z,99236.81
2022-12-19T16:03:51.224Z,99235.03
2022-12-19T16:06:18.259Z,99235.53
2022-12-19T16:08:44.787Z,99237.59
2022-12-19T16:11:23.418Z,99233.91
2022-12-19T16:13:55.587Z,99246.56
2022-12-19T16:16:22.584Z,99247.31
2022-12-19T16:18:49.240Z,99235.78
2022-12-19T16:21:31.542Z,99235.03
2022-12-19T16:24:00.622Z,99242.75
2022-12-19T16:26:33.464Z,99249.53
2022-12-19T16:29:00.610Z,99247.63
2022-12-19T16:31:27.963Z,99240.66
2022-12-19T16:33:55.856Z,99237.78
2022-12-19T16:36:22.652Z,99239.81
2022-12-19T16:38:49.261Z,99245.44
2022-12-19T16:41:23.259Z,99239.28
2022-12-19T16:43:50.421Z,99235.22
2022-12-19T16:46:21.732Z,99237.53
2022-12-19T16:48:49.010Z,99237.38
2022-12-19T16:51:21.249Z,99242.59
2022-12-19T16:53:49.139Z,99236.91
2022-12-19T16:56:32.660Z,99241.28
2022-12-19T16:59:01.929Z,99234.63
2022-12-19T17:01:29.000Z,99246.81
2022-12-19T17:03:55.739Z,99244.91
2022-12-19T17:06:23.566Z,99250.47
2022-12-19T17:08:50.114Z,99249.41
2022-12-19T17:11:24.307Z,99254.44
2022-12-19T17:14:01.287Z,99246.47
2022-12-19T17:16:29.765Z,99250.03
2022-12-19T17:18:57.884Z,99244.34
2022-12-19T17:21:24.493Z,99248.19
2022-12-19T17:23:51.318Z,99240.84
2022-12-19T17:26:18.635Z,99234.72
2022-12-19T17:28:48.277Z,99231.59
2022-12-19T17:31:28.361Z,99236.28
2022-12-19T17:33:57.767Z,99236.94
2022-12-19T17:36:32.871Z,99233.69
2022-12-19T17:39:03.935Z,99227.56
2022-12-19T17:41:30.721Z,99238.84
2022-12-19T17:43:57.384Z,99237.56
2022-12-19T17:46:25.270Z,99236.09
2022-12-19T17:48:53.532Z,99233.25
2022-12-19T17:51:21.995Z,99242.69
2022-12-19T17:53:49.489Z,99240.84
2022-12-19T17:56:18.591Z,99232.59
2022-12-19T17:58:45.147Z,99232.06
2022-12-19T18:01:19.643Z,99237.03
2022-12-19T18:03:47.667Z,99233.09
2022-12-19T18:06:14.769Z,99243.25
2022-12-19T18:08:42.126Z,99243.44
2022-12-19T18:11:17.912Z,99247.00
2022-12-19T18:13:44.474Z,99245.53
2022-12-19T18:16:15.458Z,99243.44
2022-12-19T18:18:42.151Z,99236.56
2022-12-19T18:21:14.316Z,99236.47
2022-12-19T18:23:40.932Z,99238.84
2022-12-19T18:26:07.930Z,99236.19
2022-12-19T18:28:34.415Z,99231.25
2022-12-19T18:31:09.776Z,99237.28
2022-12-19T18:33:41.122Z,99227.63
2022-12-19T18:36:14.936Z,99238.75
2022-12-19T18:38:41.390Z,99226.81
2022-12-19T18:41:10.868Z,99236.72
2022-12-19T18:43:37.362Z,99229.94
2022-12-19T18:46:04.249Z,99241.22
2022-12-19T18:48:39.237Z,99236.19
2022-12-19T18:51:06.092Z,99241.97
2022-12-19T18:53:35.785Z,99241.22
2022-12-19T18:56:04.833Z,99243.06
2022-12-19T18:58:31.707Z,99238.78
2022-12-19T19:01:00.441Z,99243.16
2022-12-19T19:03:33.700Z,99243.25
2022-12-19T19:06:00.908Z,99234.81
2022-12-19T19:08:33.208Z,99231.69
2022-12-19T19:11:00.527Z,99230.22
2022-12-19T19:13:27.209Z,99227.94
2022-12-19T19:15:57.666Z,99222.97
2022-12-19T19:18:45.078Z,99229.84
2022-12-19T19:21:14.591Z,99224.97
2022-12-19T19:23:47.406Z,99222.59
2022-12-19T19:26:13.849Z,99211.06
2022-12-19T19:28:40.362Z,99216.00
2022-12-19T19:31:11.105Z,99199.13
2022-12-19T19:33:41.813Z,99210.31
2022-12-19T19:36:13.567Z,99218.19
2022-12-19T19:38:44.132Z,99216.38
2022-12-19T19:41:10.751Z,99203.81
2022-12-19T19:43:37.224Z,99210.69
2022-12-19T19:46:04.426Z,99205.38
2022-12-19T19:48:31.357Z,99194.78
2022-12-19T19:50:58.401Z,99200.28
2022-12-19T19:53:25.024Z,99200.78
2022-12-19T19:56:10.903Z,99193.25
2022-12-19T19:58:37.501Z,99196.56
2022-12-19T20:01:12.742Z,99185.44
2022-12-19T20:03:40.308Z,99190.13
2022-12-19T20:06:07.439Z,99191.13
2022-12-19T20:08:39.680Z,99188.09
2022-12-19T20:11:06.930Z,99181.13
2022-12-19T20:13:33.406Z,99191.41
2022-12-19T20:16:09.035Z,99200.13
2022-12-19T20:18:37.733Z,99191.41
2022-12-19T20:21:12.320Z,99183.72
2022-12-19T20:23:41.324Z,99195.91
2022-12-19T20:26:08.354Z,99180.97
2022-12-19T20:28:35.165Z,99187.34
2022-12-19T20:31:02.108Z,99189.78
2022-12-19T20:33:28.818Z,99198.56
2022-12-19T20:35:56.711Z,99200.78
2022-12-19T20:38:23.671Z,99206.34
2022-12-19T20:40:52.887Z,99193.41
2022-12-19T20:43:19.310Z,99200.66
2022-12-19T20:45:45.762Z,99205.75
2022-12-19T20:48:12.229Z,99200.78
2022-12-19T20:50:43.065Z,99198.94
2022-12-19T20:53:10.079Z,99200.66
2022-12-19T20:55:36.563Z,99203.16
2022-12-19T20:58:03.103Z,99207.22
2022-12-19T21:00:29.580Z,99212.25
2022-12-19T21:05:42.614Z,99204.19
2022-12-19T21:08:09.209Z,99199.59
2022-12-19T21:10:36.009Z,99196.38
2022-12-19T21:13:02.518Z,99203.34
2022-12-19T21:15:30.954Z,99213.06
2022-12-19T21:17:57.445Z,99199.41
2022-12-19T21:20:26.110Z,99207.28
2022-12-19T21:22:54.939Z,99208.69
2022-12-19T21:25:21.584Z,99203.97
2022-12-19T21:27:48.072Z,99200.94
2022-12-19T21:30:14.596Z,99208.84
2022-12-19T21:32:41.080Z,99199.13
2022-12-19T21:35:08.100Z,99195.84
2022-12-19T21:37:39.777Z,99209.75
2022-12-19T21:40:10.041Z,99195.16
2022-12-19T21:42:36.518Z,99205.06
2022-12-19T21:45:03.148Z,99201.22
2022-12-19T21:47:29.584Z,99199.09
2022-12-19T21:49:56.007Z,99206.38
2022-12-19T21:52:22.485Z,99215.97
2022-12-19T21:54:49.000Z,99206.34
2022-12-19T21:57:15.493Z,99220.22
2022-12-19T21:59:41.929Z,99229.50
2022-12-19T22:02:11.759Z,99237.06
2022-12-19T22:04:38.558Z,99241.91
2022-12-19T22:07:05.503Z,99230.94
2022-12-19T22:09:32.015Z,99219.44
2022-12-19T22:11:58.518Z,99221.22
2022-12-19T22:14:25.539Z,99226.91
2022-12-19T22:16:52.137Z,99226.28
2022-12-19T22:19:19.532Z,99217.09
2022-12-19T22:21:47.303Z,99216.63
2022-12-19T22:24:15.501Z,99217.84
2022-12-19T22:26:42.146Z,99230.56
2022-12-19T22:29:11.154Z,99234.41
2022-12-19T22:31:38.806Z,99235.13
2022-12-19T22:34:08.211Z,99221.94
2022-12-19T22:36:36.669Z,99228.03
2022-12-19T22:39:06.403Z,99222.16
2022-12-19T22:41:34.237Z,99223.00
2022-12-19T22:44:00.743Z,99215.19
2022-12-19T22:46:33.211Z,99211.16
2022-12-19T22:49:02.241Z,99190.72
2022-12-19T22:51:30.571Z,99216.03
2022-12-19T22:53:57.892Z,99199.34
2022-12-19T22:56:26.332Z,99202.19
2022-12-19T22:58:54.686Z,99203.69
2022-12-19T23:01:27.352Z,99195.94
2022-12-19T23:03:56.747Z,99190.63
2022-12-19T23:06:25.517Z,99189.47
2022-12-19T23:08:52.794Z,99183.31
2022-12-19T23:11:22.596Z,99175.34
2022-12-19T23:13:49.541Z,99169.38
2022-12-19T23:16:16.710Z,99172.03
2022-12-19T23:18:43.339Z,99165.78
2022-12-19T23:21:11.138Z,99152.78
2022-12-19T23:23:39.915Z,99151.78
2022-12-19T23:26:15.029Z,99161.75
2022-12-19T23:28:44.263Z,99162.78
2022-12-19T23:31:13.655Z,99154.72
2022-12-19T23:33:40.187Z,99156.63
2022-12-19T23:36:07.259Z,99148.47
2022-12-19T23:38:34.105Z,99154.91
2022-12-19T23:41:08.618Z,99148.22
2022-12-19T23:43:36.406Z,99148.47
2022-12-19T23:46:14.731Z,99148.22
2022-12-19T23:48:41.824Z,99151.94
2022-12-19T23:51:13.514Z,99148.09
2022-12-19T23:53:40.629Z,99166.72
2022-12-19T23:56:11.744Z,99163.22
2022-12-19T23:58:38.433Z,99164.72
